Time;durP1;ratioP1;P1;durP2;ratioP2;P2;SDS_P1;SDS_P2;PMS_P1;PMS_P2;Temp;Humidity;BMP_temperature;BMP_pressure;BME280_temperature;BME280_humidity;BME280_pressure;Samples;Min_cycle;Max_cycle;Signal;HPM_P1;HPM_P2
2021/07/01 00:01:02;;;;;;;10.93;8.93;;;;;;;18.77;78.04;98315.69;125029;1094;64191;-78
2021/07/01 00:03:29;;;;;;;8.93;8.13;;;;;;;18.73;78.21;98317.02;125068;1093;64347;-78
2021/07/01 00:05:57;;;;;;;10.60;9.13;;;;;;;18.69;78.08;98319.20;124977;1093;64212;-78
2021/07/01 00:08:24;;;;;;;9.97;9.00;;;;;;;18.64;78.60;98299.98;125081;1093;64182;-78
2021/07/01 00:10:52;;;;;;;10.65;9.20;;;;;;;18.64;78.70;98308.94;125014;1093;64287;-78
2021/07/01 00:13:18;;;;;;;9.40;8.37;;;;;;;18.67;78.56;98306.89;125011;1093;64177;-78
2021/07/01 00:15:45;;;;;;;11.10;8.60;;;;;;;18.68;78.34;98304.03;124984;1093;64290;-78
2021/07/01 00:18:12;;;;;;;9.43;8.53;;;;;;;18.67;78.56;98304.19;125024;1093;64326;-78
2021/07/01 00:20:38;;;;;;;9.60;8.70;;;;;;;18.66;79.07;98306.05;124999;1093;64370;-78
2021/07/01 00:23:05;;;;;;;10.83;9.07;;;;;;;18.67;79.17;98304.19;125039;1093;64242;-79
2021/07/01 00:25:31;;;;;;;10.07;9.00;;;;;;;18.70;79.09;98295.78;125027;1092;64452;-77
2021/07/01 00:27:59;;;;;;;8.75;7.90;;;;;;;18.67;79.25;98291.56;125019;1091;64191;-77
2021/07/01 00:30:27;;;;;;;9.23;7.90;;;;;;;18.61;79.23;98298.46;124995;1093;64191;-77
2021/07/01 00:32:53;;;;;;;11.60;8.57;;;;;;;18.53;79.34;98289.55;125012;1093;64364;-77
2021/07/01 00:35:20;;;;;;;8.87;8.07;;;;;;;18.50;79.81;98290.73;125010;1093;64284;-77
2021/07/01 00:37:46;;;;;;;10.57;9.10;;;;;;;18.49;79.48;98296.31;124976;1093;64290;-77
2021/07/01 00:40:14;;;;;;;10.27;9.20;;;;;;;18.50;79.71;98303.38;125024;1093;64408;-77
2021/07/01 00:42:40;;;;;;;9.60;8.23;;;;;;;18.56;79.57;98305.39;124992;1093;64264;-77
2021/07/01 00:45:08;;;;;;;9.17;8.27;;;;;;;18.54;79.88;98308.28;125000;1093;64143;-77
2021/07/01 00:47:36;;;;;;;10.10;8.90;;;;;;;18.55;79.92;98309.11;125025;1093;64722;-77
2021/07/01 00:50:07;;;;;;;11.17;9.00;;;;;;;18.56;80.13;98300.86;124986;1093;64355;-77
2021/07/01 00:52:34;;;;;;;10.43;9.43;;;;;;;18.59;80.01;98305.91;125062;1093;64280;-77
2021/07/01 00:55:01;;;;;;;13.90;11.25;;;;;;;18.60;80.00;98304.89;125037;1093;64299;-77
2021/07/01 00:57:28;;;;;;;12.00;10.10;;;;;;;18.62;80.06;98305.56;125035;1093;64284;-77
2021/07/01 00:59:55;;;;;;;16.57;14.80;;;;;;;18.67;80.33;98307.76;125038;1093;64265;-77
2021/07/01 01:02:21;;;;;;;19.57;15.53;;;;;;;18.72;80.35;98305.39;125011;1093;64281;-78
2021/07/01 01:04:48;;;;;;;22.53;16.63;;;;;;;18.76;80.15;98298.65;125006;1093;64220;-78
2021/07/01 01:07:15;;;;;;;15.80;13.27;;;;;;;18.78;80.41;98302.03;125039;1093;64728;-77
2021/07/01 01:09:41;;;;;;;13.37;12.00;;;;;;;18.77;80.45;98297.66;125050;1093;64319;-77
2021/07/01 01:12:08;;;;;;;17.00;12.57;;;;;;;18.77;80.12;98304.89;125031;1093;64290;-77
2021/07/01 01:14:35;;;;;;;14.47;13.00;;;;;;;18.74;80.17;98303.34;125001;1093;64292;-78
2021/07/01 01:17:02;;;;;;;13.87;10.90;;;;;;;18.74;80.48;98314.13;125069;1093;64312;-77
2021/07/01 01:19:29;;;;;;;12.57;10.03;;;;;;;18.74;80.61;98321.40;125010;1093;64268;-78
2021/07/01 01:21:56;;;;;;;11.50;9.63;;;;;;;18.69;80.53;98310.27;125026;1093;64257;-78
2021/07/01 01:24:22;;;;;;;14.07;10.40;;;;;;;18.72;80.86;98315.32;125056;1093;64242;-78
2021/07/01 01:26:49;;;;;;;10.67;9.57;;;;;;;18.76;80.78;98316.71;125016;1093;64238;-78
2021/07/01 01:56:23;;;;;;;9.03;8.13;;;;;;;18.75;81.59;98296.14;125041;1093;64150;-77
2021/07/01 01:58:49;;;;;;;9.87;7.47;;;;;;;18.73;82.00;98296.27;125017;1093;64270;-77
2021/07/01 02:01:16;;;;;;;10.33;7.70;;;;;;;18.75;81.98;98296.98;125042;1090;64287;-77
2021/07/01 02:03:43;;;;;;;9.23;8.33;;;;;;;18.78;81.95;98293.92;125015;1093;64252;-77
2021/07/01 02:06:09;;;;;;;8.97;8.07;;;;;;;18.81;82.11;98288.18;125023;1093;64316;-77
2021/07/01 02:08:38;;;;;;;9.07;8.13;;;;;;;18.78;82.21;98285.83;125023;1093;64220;-77
2021/07/01 02:11:05;;;;;;;10.53;9.37;;;;;;;18.76;81.93;98287.02;124998;1093;64239;-77
2021/07/01 02:13:31;;;;;;;9.30;8.30;;;;;;;18.70;82.02;98288.52;125050;1092;64335;-78
2021/07/01 02:15:58;;;;;;;9.67;8.77;;;;;;;18.72;82.34;98297.30;125011;1093;64265;-77
2021/07/01 02:18:24;;;;;;;9.00;8.10;;;;;;;18.75;82.29;98302.38;125073;1093;64334;-77
2021/07/01 02:20:51;;;;;;;8.80;7.90;;;;;;;18.73;82.21;98303.53;125045;1093;64264;-77
2021/07/01 02:23:18;;;;;;;10.45;8.60;;;;;;;18.74;82.80;98318.70;125038;1093;64412;-77
2021/07/01 02:25:44;;;;;;;8.43;7.63;;;;;;;18.75;82.73;98310.47;125059;1093;64191;-78
2021/07/01 02:28:11;;;;;;;10.33;8.30;;;;;;;18.78;82.73;98310.13;124997;1093;64380;-78
2021/07/01 02:30:37;;;;;;;10.73;7.93;;;;;;;18.78;82.68;98315.52;124987;1093;64188;-78
2021/07/01 02:33:04;;;;;;;8.73;7.93;;;;;;;18.76;82.96;98312.14;125038;1093;64303;-78
2021/07/01 02:35:32;;;;;;;8.13;7.33;;;;;;;18.81;83.03;98322.44;125026;1093;64259;-78
2021/07/01 02:37:59;;;;;;;9.87;8.73;;;;;;;18.83;82.63;98317.72;125006;1093;64273;-78
2021/07/01 02:40:26;;;;;;;11.33;9.23;;;;;;;18.86;82.83;98329.00;125026;1093;64291;-78
2021/07/01 02:42:53;;;;;;;10.17;8.67;;;;;;;18.89;82.48;98327.81;125070;1092;64271;-79
2021/07/01 02:45:19;;;;;;;11.15;8.95;;;;;;;18.89;82.82;98327.81;125049;1093;64306;-76
2021/07/01 02:47:47;;;;;;;9.23;7.83;;;;;;;18.87;82.65;98327.14;125187;1093;64268;-79
2021/07/01 02:50:13;;;;;;;10.70;7.60;;;;;;;18.86;82.77;98325.47;125348;1093;64431;-76
2021/07/01 02:52:40;;;;;;;10.83;7.23;;;;;;;18.86;82.59;98329.00;125372;1093;64268;-77
2021/07/01 02:55:09;;;;;;;8.03;7.10;;;;;;;18.88;82.81;98326.14;125383;1093;64297;-77
2021/07/01 02:57:37;;;;;;;10.47;7.27;;;;;;;18.90;82.73;98331.36;125381;1092;64373;-78
2021/07/01 03:00:08;;;;;;;8.13;7.07;;;;;;;18.93;82.52;98331.88;125129;1093;64345;-79
2021/07/01 03:02:35;;;;;;;7.47;6.80;;;;;;;18.97;82.42;98338.59;125092;1093;64656;-77
2021/07/01 03:05:03;;;;;;;8.50;6.60;;;;;;;18.99;82.51;98343.84;125007;1092;64264;-78
2021/07/01 03:07:30;;;;;;;10.40;7.60;;;;;;;19.04;82.29;98341.47;125021;1093;64280;-77
2021/07/01 03:09:57;;;;;;;8.03;7.13;;;;;;;19.05;82.39;98341.27;125020;1093;64354;-78
2021/07/01 03:12:24;;;;;;;9.30;7.30;;;;;;;19.06;82.21;98342.98;125014;1093;64302;-78
2021/07/01 03:14:51;;;;;;;8.67;6.93;;;;;;;19.06;82.20;98339.41;125037;1091;64185;-78
2021/07/01 03:17:18;;;;;;;9.10;6.70;;;;;;;19.04;82.51;98339.60;125038;1093;64306;-78
2021/07/01 03:19:45;;;;;;;7.57;6.77;;;;;;;19.06;82.13;98336.71;125040;1093;64290;-78
2021/07/01 03:22:12;;;;;;;8.27;6.63;;;;;;;19.04;82.13;98326.09;125048;1093;64284;-78
2021/07/01 03:24:38;;;;;;;10.10;7.13;;;;;;;19.06;82.34;98329.48;125063;1093;64287;-78
2021/07/01 03:27:06;;;;;;;6.93;6.17;;;;;;;19.06;82.20;98337.58;125061;1093;64286;-78
2021/07/01 03:29:33;;;;;;;8.43;5.63;;;;;;;19.08;82.23;98335.52;125007;1093;64310;-78
2021/07/01 03:32:00;;;;;;;6.90;5.50;;;;;;;19.11;82.21;98337.03;125033;1093;64213;-78
2021/07/01 03:34:26;;;;;;;9.00;6.00;;;;;;;19.12;81.93;98336.04;125012;1092;64267;-78
2021/07/01 03:36:53;;;;;;;8.00;5.50;;;;;;;19.13;82.27;98340.41;125018;1093;64276;-78
2021/07/01 03:39:20;;;;;;;7.70;5.30;;;;;;;19.15;82.09;98334.85;125041;1093;64328;-78
2021/07/01 03:41:46;;;;;;;7.00;4.60;;;;;;;19.14;81.79;98334.02;124977;1093;64290;-78
2021/07/01 03:44:14;;;;;;;5.55;4.90;;;;;;;19.13;81.46;98328.77;125007;1093;64287;-78
2021/07/01 03:46:41;;;;;;;6.40;4.30;;;;;;;19.16;81.49;98329.26;125022;1093;64297;-78
2021/07/01 03:49:08;;;;;;;6.00;5.15;;;;;;;19.20;81.14;98322.50;125003;1091;64457;-78
2021/07/01 03:51:35;;;;;;;5.37;4.87;;;;;;;19.21;81.16;98320.64;125011;1092;64207;-78
2021/07/01 03:54:03;;;;;;;5.57;4.30;;;;;;;19.23;81.11;98318.61;125022;1093;64268;-78
2021/07/01 03:56:40;;;;;;;6.63;4.47;;;;;;;19.27;80.65;98319.93;124992;1093;64213;-78
2021/07/01 03:59:12;;;;;;;6.23;4.37;;;;;;;19.34;80.98;98320.92;125081;1093;64301;-78
2021/07/01 04:01:39;;;;;;;5.23;4.73;;;;;;;19.40;80.36;98308.57;125065;1093;64271;-78
2021/07/01 04:04:07;;;;;;;5.50;5.00;;;;;;;19.41;80.61;98308.41;125094;1093;64418;-78
2021/07/01 04:06:34;;;;;;;6.93;6.03;;;;;;;19.44;80.64;98318.86;125122;1093;64280;-78
2021/07/01 04:09:03;;;;;;;7.67;5.30;;;;;;;19.48;80.19;98314.80;125083;1092;64281;-78
2021/07/01 04:11:30;;;;;;;8.60;5.77;;;;;;;19.53;80.21;98316.95;125023;1093;64383;-78
2021/07/01 04:13:57;;;;;;;6.90;5.83;;;;;;;19.57;79.53;98317.46;125066;1093;64307;-78
2021/07/01 04:16:24;;;;;;;12.67;6.20;;;;;;;19.59;79.42;98315.40;125105;1093;64288;-78
2021/07/01 04:18:50;;;;;;;8.73;6.57;;;;;;;19.57;78.98;98323.70;125066;1093;64210;-78
2021/07/01 04:21:17;;;;;;;7.67;6.97;;;;;;;19.55;78.81;98328.44;125111;1093;64268;-78
2021/07/01 04:23:44;;;;;;;8.70;7.00;;;;;;;19.51;79.05;98333.36;125099;1093;64284;-80
2021/07/01 04:26:12;;;;;;;8.40;7.33;;;;;;;19.50;78.41;98338.93;125085;1093;64239;-78
2021/07/01 04:28:38;;;;;;;9.03;7.10;;;;;;;19.52;78.79;98335.03;125059;1093;64380;-78
2021/07/01 04:31:05;;;;;;;7.57;5.63;;;;;;;19.59;78.66;98337.89;125060;1093;64313;-78
2021/07/01 04:33:32;;;;;;;10.37;5.70;;;;;;;19.63;78.77;98346.48;125062;1093;64184;-78
2021/07/01 04:35:58;;;;;;;8.53;5.77;;;;;;;19.64;79.00;98350.85;125075;1092;64287;-78
2021/07/01 04:38:26;;;;;;;7.97;5.60;;;;;;;19.65;78.96;98350.69;125022;1093;64437;-77
2021/07/01 04:40:55;;;;;;;5.80;5.27;;;;;;;19.66;78.91;98362.34;125038;1092;64451;-78
2021/07/01 04:43:22;;;;;;;8.15;5.30;;;;;;;19.68;78.94;98366.59;125090;1093;64296;-79
2021/07/01 04:45:49;;;;;;;7.90;5.80;;;;;;;19.70;78.49;98374.53;125081;1093;64261;-77
2021/07/01 04:48:15;;;;;;;7.33;5.53;;;;;;;19.67;78.62;98377.59;125107;1093;64265;-77
2021/07/01 04:50:42;;;;;;;7.13;4.90;;;;;;;19.65;78.70;98382.30;125070;1093;64437;-77
2021/07/01 04:53:08;;;;;;;5.00;4.50;;;;;;;19.59;78.85;98375.73;125035;1093;64195;-78
2021/07/01 04:55:35;;;;;;;7.67;5.93;;;;;;;19.55;78.78;98377.09;124989;1093;64296;-77
2021/07/01 04:58:02;;;;;;;6.53;4.83;;;;;;;19.55;78.92;98378.95;125039;1093;64276;-77
2021/07/01 05:00:29;;;;;;;6.77;6.00;;;;;;;19.56;79.06;98370.66;125002;1091;64284;-77
2021/07/01 05:02:55;;;;;;;11.47;5.50;;;;;;;19.59;78.68;98378.44;124989;1092;64287;-77
2021/07/01 05:05:22;;;;;;;8.27;6.00;;;;;;;19.64;78.37;98378.75;125038;1093;64619;-78
2021/07/01 05:07:48;;;;;;;6.30;5.65;;;;;;;19.66;78.03;98376.72;125030;1091;64217;-79
2021/07/01 05:10:15;;;;;;;6.33;5.10;;;;;;;19.64;78.08;98372.48;125041;1093;64290;-77
2021/07/01 05:12:42;;;;;;;9.70;7.03;;;;;;;19.64;78.20;98375.19;125029;1093;64210;-78
2021/07/01 05:15:09;;;;;;;11.20;6.80;;;;;;;19.65;78.07;98377.72;125030;1093;64294;-78
2021/07/01 05:17:36;;;;;;;7.50;6.13;;;;;;;19.67;78.44;98367.62;125014;1093;64239;-78
2021/07/01 05:20:06;;;;;;;9.07;5.70;;;;;;;19.74;78.43;98371.28;125036;1093;64313;-78
2021/07/01 05:22:33;;;;;;;9.37;6.00;;;;;;;19.80;78.01;98375.16;125057;1093;64283;-77
2021/07/01 05:25:00;;;;;;;10.93;5.67;;;;;;;19.85;77.67;98380.02;125068;1093;64268;-77
2021/07/01 05:27:27;;;;;;;8.15;5.90;;;;;;;19.86;78.12;98387.97;125032;1093;64265;-78
2021/07/01 05:29:53;;;;;;;8.73;5.70;;;;;;;19.86;77.81;98379.02;125075;1093;64413;-77
2021/07/01 05:32:20;;;;;;;9.87;5.97;;;;;;;19.87;77.72;98377.98;125004;1093;64279;-78
2021/07/01 05:34:46;;;;;;;9.27;5.33;;;;;;;19.93;77.51;98377.27;125025;1093;64185;-78
2021/07/01 05:37:13;;;;;;;27.73;8.57;;;;;;;20.00;77.45;98380.95;125017;1093;64268;-78
2021/07/01 05:39:40;;;;;;;26.20;7.07;;;;;;;20.07;77.61;98384.64;124973;1093;64312;-77
2021/07/01 05:42:06;;;;;;;9.95;5.95;;;;;;;20.10;77.30;98384.28;125016;1093;64315;-78
2021/07/01 05:44:33;;;;;;;19.47;6.60;;;;;;;20.11;76.92;98394.06;125031;1093;64248;-78
2021/07/01 05:47:00;;;;;;;10.70;5.13;;;;;;;20.08;77.11;98386.31;125064;1093;64303;-78
2021/07/01 05:49:27;;;;;;;23.27;7.00;;;;;;;20.14;76.76;98387.45;125016;1093;64192;-78
2021/07/01 05:51:56;;;;;;;8.63;5.60;;;;;;;20.18;76.65;98386.93;124997;1093;64309;-78
2021/07/01 05:56:49;;;;;;;23.87;7.37;;;;;;;20.32;76.65;98382.60;125056;1093;64280;-78
2021/07/01 05:59:16;;;;;;;8.20;4.97;;;;;;;20.42;76.13;98379.66;125001;1093;64360;-77
2021/07/01 06:01:43;;;;;;;7.97;5.47;;;;;;;20.60;75.77;98384.81;125029;1093;64262;-78
2021/07/01 06:04:09;;;;;;;7.77;4.93;;;;;;;20.73;75.43;98387.74;125003;1093;64440;-77
2021/07/01 06:06:39;;;;;;;7.13;5.10;;;;;;;20.78;74.88;98390.75;125032;1093;64372;-78
2021/07/01 06:09:06;;;;;;;8.80;5.90;;;;;;;20.85;74.09;98385.42;125072;1092;64367;-78
2021/07/01 06:11:34;;;;;;;8.30;5.70;;;;;;;20.91;74.16;98389.30;125051;1093;64629;-77
2021/07/01 06:14:04;;;;;;;8.93;4.97;;;;;;;20.98;73.72;98380.22;125052;1093;64284;-78
2021/07/01 06:16:33;;;;;;;6.50;4.60;;;;;;;21.11;73.67;98382.30;125037;1093;64340;-78
2021/07/01 06:19:02;;;;;;;8.67;4.87;;;;;;;21.10;72.70;98388.75;125041;1092;64271;-77
2021/07/01 06:21:29;;;;;;;5.70;4.30;;;;;;;21.18;72.66;98395.97;125050;1093;65385;-81
2021/07/01 06:23:56;;;;;;;6.23;4.50;;;;;;;21.28;72.27;98392.99;125140;1093;64306;-80
2021/07/01 06:26:29;;;;;;;7.30;4.60;;;;;;;21.41;72.18;98390.50;125091;1093;64239;-81
2021/07/01 06:28:56;;;;;;;7.07;5.13;;;;;;;21.62;72.10;98395.17;125121;1093;64290;-81
2021/07/01 06:31:24;;;;;;;6.20;4.73;;;;;;;21.89;71.12;98394.47;125195;1093;64424;-81
2021/07/01 06:33:51;;;;;;;5.97;4.50;;;;;;;22.31;70.15;98395.61;125171;1093;64287;-81
2021/07/01 06:36:19;;;;;;;5.93;4.30;;;;;;;22.88;69.25;98393.00;125119;1093;64811;-81
2021/07/01 06:38:53;;;;;;;5.63;3.90;;;;;;;23.28;67.18;98393.36;125108;1093;64616;-81
2021/07/01 06:41:21;;;;;;;7.70;4.20;;;;;;;23.13;67.20;98396.17;125090;1093;64540;-81
2021/07/01 06:43:49;;;;;;;8.17;4.73;;;;;;;23.01;65.81;98406.73;125101;1093;64310;-81
2021/07/01 06:46:17;;;;;;;5.93;4.43;;;;;;;22.94;66.40;98398.51;125086;1093;64287;-82
2021/07/01 06:48:49;;;;;;;3.97;3.53;;;;;;;23.21;65.61;98398.73;125127;1093;64288;-81
2021/07/01 06:51:16;;;;;;;7.30;4.47;;;;;;;23.30;64.94;98403.00;125086;1093;64281;-81
2021/07/01 06:53:45;;;;;;;4.73;4.27;;;;;;;23.14;63.79;98404.11;125082;1093;64188;-81
2021/07/01 06:56:13;;;;;;;4.23;3.80;;;;;;;23.02;64.75;98413.86;125127;1092;64417;-81
2021/07/01 06:58:43;;;;;;;6.03;4.23;;;;;;;22.95;65.05;98400.17;125112;1093;64238;-82
2021/07/01 07:01:11;;;;;;;5.60;5.03;;;;;;;23.17;65.00;98409.18;125082;1092;64149;-80
2021/07/01 07:03:38;;;;;;;4.30;3.90;;;;;;;23.28;64.12;98405.07;125079;1093;64290;-81
2021/07/01 07:06:05;;;;;;;6.07;4.23;;;;;;;23.40;64.18;98403.45;125040;1093;64214;-80
2021/07/01 07:08:32;;;;;;;4.63;4.13;;;;;;;23.61;63.30;98407.98;125105;1093;64373;-80
2021/07/01 07:11:00;;;;;;;8.83;4.97;;;;;;;23.72;62.78;98406.59;125119;1093;64281;-81
2021/07/01 07:13:27;;;;;;;7.67;5.10;;;;;;;23.93;63.00;98410.27;125089;1093;64188;-81
2021/07/01 07:15:57;;;;;;;8.05;4.45;;;;;;;24.12;62.42;98401.35;125063;1093;64281;-80
2021/07/01 07:18:31;;;;;;;4.43;3.53;;;;;;;24.18;61.74;98414.14;125141;1093;64287;-81
2021/07/01 07:21:03;;;;;;;4.60;4.20;;;;;;;24.24;61.72;98409.75;125133;1093;64283;-80
2021/07/01 07:23:38;;;;;;;4.45;3.90;;;;;;;24.20;60.65;98408.50;125096;1092;64239;-81
2021/07/01 07:26:15;;;;;;;4.87;4.07;;;;;;;24.02;59.91;98406.34;125096;1093;64275;-81
2021/07/01 07:28:43;;;;;;;5.20;4.60;;;;;;;23.83;60.22;98416.10;125121;1093;64268;-80
2021/07/01 07:31:12;;;;;;;5.53;4.17;;;;;;;23.80;60.52;98403.73;125073;1093;64264;-81
2021/07/01 07:33:39;;;;;;;6.00;4.17;;;;;;;23.75;60.15;98408.95;125103;1093;64367;-81
2021/07/01 07:36:06;;;;;;;3.95;3.65;;;;;;;23.87;60.45;98409.20;125137;1093;64276;-80
2021/07/01 07:38:33;;;;;;;2.63;2.40;;;;;;;24.06;59.97;98410.31;125149;1092;64351;-80
2021/07/01 07:41:00;;;;;;;2.10;1.90;;;;;;;24.16;58.88;98418.11;125116;1093;64287;-81
2021/07/01 07:43:27;;;;;;;2.47;2.10;;;;;;;24.13;57.57;98408.47;125132;1093;64216;-80
2021/07/01 07:45:56;;;;;;;2.70;2.50;;;;;;;24.03;57.48;98399.84;125171;1092;64386;-80
2021/07/01 07:48:23;;;;;;;3.93;3.63;;;;;;;23.99;57.27;98409.47;125196;1093;64303;-81
2021/07/01 07:50:52;;;;;;;4.05;3.40;;;;;;;23.96;57.88;98407.99;125188;1093;64213;-82
2021/07/01 07:53:25;;;;;;;4.33;2.60;;;;;;;24.07;58.11;98401.95;125110;1093;64280;-82
2021/07/01 07:56:02;;;;;;;3.10;2.60;;;;;;;24.16;57.75;98408.05;125091;1093;64265;-82
2021/07/01 07:58:35;;;;;;;2.93;2.47;;;;;;;24.11;57.93;98402.38;125217;1093;64382;-81
2021/07/01 08:01:04;;;;;;;3.73;2.20;;;;;;;24.04;57.86;98410.54;125146;1093;64264;-81
2021/07/01 08:03:33;;;;;;;3.07;2.30;;;;;;;23.90;58.00;98416.95;125155;1093;64269;-81
2021/07/01 08:06:05;;;;;;;11.93;3.97;;;;;;;23.66;58.24;98427.27;125186;1093;64273;-81
2021/07/01 08:08:35;;;;;;;5.37;3.07;;;;;;;23.39;58.79;98415.39;125088;1093;64263;-81
2021/07/01 08:11:07;;;;;;;5.20;3.37;;;;;;;23.31;59.16;98412.83;125161;1093;64759;-81
2021/07/01 08:13:37;;;;;;;4.00;3.20;;;;;;;23.07;59.11;98426.88;125135;1093;64374;-81
2021/07/01 08:16:06;;;;;;;4.43;3.50;;;;;;;22.95;59.50;98418.36;125089;1093;64207;-81
2021/07/01 08:18:41;;;;;;;4.20;3.80;;;;;;;22.81;59.77;98419.30;125090;1093;64306;-81
2021/07/01 08:21:14;;;;;;;4.93;3.33;;;;;;;22.75;60.07;98413.61;125148;1093;64293;-81
2021/07/01 08:23:43;;;;;;;4.17;3.20;;;;;;;22.73;60.40;98412.95;125063;1093;64243;-81
2021/07/01 08:26:12;;;;;;;4.05;3.55;;;;;;;22.66;60.08;98412.05;125105;1093;64294;-81
2021/07/01 08:28:39;;;;;;;3.37;2.90;;;;;;;22.44;60.76;98411.20;125163;1091;64188;-81
2021/07/01 08:31:11;;;;;;;2.95;2.55;;;;;;;22.27;61.28;98421.45;125022;1093;64188;-81
2021/07/01 08:33:43;;;;;;;4.77;2.77;;;;;;;22.15;62.04;98412.11;125179;1093;64287;-81
2021/07/01 08:36:14;;;;;;;2.63;2.20;;;;;;;22.12;62.31;98420.64;125209;1093;64293;-81
2021/07/01 08:38:42;;;;;;;3.87;2.77;;;;;;;22.23;62.76;98411.19;125121;1091;64164;-81
2021/07/01 08:41:15;;;;;;;3.27;2.57;;;;;;;22.47;62.96;98407.27;125105;1093;64265;-81
2021/07/01 08:43:57;;;;;;;2.87;2.67;;;;;;;22.68;62.52;98411.86;125209;1093;64239;-81
2021/07/01 08:46:39;;;;;;;4.83;2.73;;;;;;;22.79;62.39;98414.88;125132;1093;64395;-80
2021/07/01 08:49:08;;;;;;;4.43;2.80;;;;;;;22.89;61.86;98419.99;125160;1092;64412;-81
2021/07/01 08:51:38;;;;;;;3.07;2.77;;;;;;;22.68;62.06;98436.31;125234;1093;64284;-82
2021/07/01 08:54:15;;;;;;;4.07;2.90;;;;;;;22.50;62.58;98442.17;125149;1093;64264;-81
2021/07/01 08:56:43;;;;;;;4.97;3.57;;;;;;;22.23;62.95;98431.03;125081;1093;64715;-83
2021/07/01 08:59:12;;;;;;;6.17;3.50;;;;;;;21.97;63.28;98436.10;125080;1093;64252;-78
2021/07/01 09:01:42;;;;;;;6.43;3.63;;;;;;;21.69;63.73;98431.34;125130;1093;64188;-76
2021/07/01 09:04:13;;;;;;;4.25;2.90;;;;;;;21.57;64.29;98433.69;125063;1093;64277;-76
2021/07/01 09:06:40;;;;;;;6.63;4.03;;;;;;;21.48;65.04;98434.80;125063;1093;64182;-79
2021/07/01 09:09:11;;;;;;;3.43;2.30;;;;;;;21.44;65.18;98438.92;125038;1093;64306;-82
2021/07/01 09:11:41;;;;;;;4.00;2.10;;;;;;;21.54;65.26;98435.91;125084;1093;64339;-79
2021/07/01 09:14:11;;;;;;;2.63;1.80;;;;;;;21.52;65.77;98440.70;125142;1093;65831;-77
2021/07/01 09:16:39;;;;;;;7.45;1.80;;;;;;;21.36;66.06;98458.80;125002;1093;64277;-79
2021/07/01 09:19:06;;;;;;;2.30;2.10;;;;;;;21.25;66.98;98461.95;125101;1092;64287;-78
2021/07/01 09:21:34;;;;;;;3.00;2.13;;;;;;;21.20;67.07;98461.67;125099;1093;64268;-81
2021/07/01 09:24:03;;;;;;;5.43;1.30;;;;;;;21.09;67.26;98478.34;125090;1093;64293;-80
2021/07/01 09:26:30;;;;;;;3.13;1.33;;;;;;;21.04;67.85;98468.08;125144;1092;64422;-81
2021/07/01 09:28:57;;;;;;;2.37;1.40;;;;;;;21.14;67.65;98467.80;125169;1093;64306;-83
2021/07/01 09:31:26;;;;;;;2.23;1.70;;;;;;;21.30;67.73;98474.94;125132;1092;64306;-82
2021/07/01 09:33:53;;;;;;;3.37;1.37;;;;;;;21.48;66.88;98470.91;125040;1093;64271;-79
2021/07/01 09:36:24;;;;;;;1.70;1.60;;;;;;;21.44;66.59;98483.13;125064;1093;64322;-79
2021/07/01 09:38:54;;;;;;;2.77;1.83;;;;;;;21.38;66.76;98473.04;125118;1093;64281;-79
2021/07/01 09:41:23;;;;;;;2.98;1.60;;;;;;;21.40;66.96;98473.67;125117;1092;64410;-79
2021/07/01 09:43:51;;;;;;;5.10;1.67;;;;;;;21.40;66.77;98476.39;125150;1092;64351;-79
2021/07/01 09:46:22;;;;;;;2.03;1.50;;;;;;;21.47;67.07;98473.80;125014;1092;64248;-79
2021/07/01 09:48:52;;;;;;;3.40;2.07;;;;;;;21.63;67.64;98476.33;125086;1093;64280;-79
2021/07/01 09:51:19;;;;;;;;;;;;;;;21.84;67.29;98474.75;125117;1093;64303;-79
2021/07/01 09:53:55;;;;;;;5.23;1.77;;;;;;;22.01;67.57;98468.11;125069;1093;64284;-80
2021/07/01 09:56:39;;;;;;;5.63;2.00;;;;;;;22.39;67.25;98462.53;125232;1093;64126;-80
2021/07/01 09:59:27;;;;;;;2.93;2.30;;;;;;;22.82;66.39;98440.82;125237;1093;64215;-80
2021/07/01 10:02:11;;;;;;;2.77;1.90;;;;;;;23.12;64.59;98452.42;125269;1093;64281;-80
2021/07/01 10:04:38;;;;;;;4.50;2.77;;;;;;;23.24;64.23;98452.71;125184;1090;64267;-80
2021/07/01 10:07:09;;;;;;;2.67;2.40;;;;;;;23.29;64.74;98458.40;125153;1093;64284;-80
2021/07/01 10:09:36;;;;;;;4.33;2.90;;;;;;;23.40;64.71;98465.17;125133;1093;64303;-80
2021/07/01 10:12:16;;;;;;;7.80;4.07;;;;;;;23.39;64.95;98460.78;125089;1092;64188;-79
2021/07/01 10:14:43;;;;;;;5.47;2.27;;;;;;;23.28;64.88;98466.77;124958;1093;64299;-79
2021/07/01 10:17:16;;;;;;;4.03;2.23;;;;;;;23.20;65.07;98463.15;125018;1093;64431;-80
2021/07/01 10:19:43;;;;;;;2.73;1.87;;;;;;;23.21;64.82;98469.42;125019;1092;64859;-79
2021/07/01 10:22:12;;;;;;;2.40;2.20;;;;;;;23.28;65.16;98459.45;125003;1093;64306;-79
2021/07/01 10:25:00;;;;;;;2.38;1.93;;;;;;;23.44;64.59;98471.91;125069;1092;64210;-80
2021/07/01 10:27:34;;;;;;;3.80;1.80;;;;;;;23.57;64.36;98473.89;125059;1093;64280;-80
2021/07/01 10:30:12;;;;;;;2.40;2.17;;;;;;;23.60;63.98;98460.72;125145;1092;64315;-80
2021/07/01 10:32:46;;;;;;;2.50;2.20;;;;;;;23.70;63.39;98465.81;125109;1093;64348;-80
2021/07/01 10:35:34;;;;;;;2.57;2.37;;;;;;;23.83;62.86;98452.31;125089;1093;62250;-79
2021/07/01 10:38:03;;;;;;;2.50;2.30;;;;;;;24.10;62.97;98444.27;125135;1093;64267;-79
2021/07/01 10:40:36;;;;;;;3.13;2.17;;;;;;;24.42;62.60;98444.59;125147;1093;64300;-79
2021/07/01 10:43:04;;;;;;;2.63;2.00;;;;;;;24.78;62.13;98444.29;125096;1093;64153;-80
2021/07/01 10:45:31;;;;;;;2.90;2.60;;;;;;;25.03;60.91;98440.95;125100;1092;64284;-80
2021/07/01 10:48:16;;;;;;;3.67;1.90;;;;;;;25.29;60.38;98434.69;125110;1092;64246;-80
2021/07/01 10:50:45;;;;;;;2.03;1.83;;;;;;;25.51;59.60;98438.00;125100;1093;64284;-79
2021/07/01 10:53:28;;;;;;;2.43;2.03;;;;;;;25.76;58.94;98424.53;125120;1093;64287;-80
2021/07/01 10:56:25;;;;;;;1.70;1.60;;;;;;;26.00;58.28;98429.30;125139;1093;64271;-79
2021/07/01 10:58:57;;;;;;;1.60;1.50;;;;;;;26.26;57.73;98430.25;125171;1092;64293;-79
2021/07/01 11:01:27;;;;;;;1.60;1.50;;;;;;;26.29;57.17;98421.61;125146;1092;64303;-80
2021/07/01 11:04:05;;;;;;;1.18;1.13;;;;;;;26.42;57.07;98418.80;125184;1093;64296;-79
2021/07/01 11:06:33;;;;;;;1.25;1.15;;;;;;;26.54;56.98;98418.13;125057;1093;64190;-79
2021/07/01 11:09:00;;;;;;;1.57;1.33;;;;;;;26.60;56.48;98409.91;125125;1092;64273;-79
2021/07/01 11:11:32;;;;;;;1.53;1.23;;;;;;;26.86;56.32;98408.88;125213;1093;64235;-80
2021/07/01 11:14:01;;;;;;;1.40;1.33;;;;;;;27.01;55.28;98414.00;125133;1093;64287;-80
2021/07/01 11:16:43;;;;;;;1.87;1.30;;;;;;;26.90;55.19;98401.06;125111;1092;64268;-79
2021/07/01 11:19:11;;;;;;;1.30;1.20;;;;;;;26.87;54.50;98405.08;125149;1093;64325;-79
2021/07/01 11:21:53;;;;;;;1.33;1.23;;;;;;;26.70;54.19;98407.53;125083;1093;64264;-79
2021/07/01 11:24:26;;;;;;;1.57;1.47;;;;;;;26.63;53.06;98405.89;125120;1093;64287;-79
2021/07/01 11:26:54;;;;;;;1.30;1.20;;;;;;;26.43;54.04;98400.51;125185;1092;64280;-78
2021/07/01 11:29:38;;;;;;;2.07;1.50;;;;;;;26.50;54.56;98396.68;125087;1093;64338;-78
2021/07/01 11:32:27;;;;;;;1.67;1.50;;;;;;;26.67;54.48;98394.30;124954;1093;64281;-79
2021/07/01 11:34:56;;;;;;;1.13;1.13;;;;;;;26.72;54.20;98393.62;125040;1093;64244;-79
2021/07/01 11:37:39;;;;;;;1.08;1.08;;;;;;;26.88;54.39;98398.56;125034;1092;64281;-80
2021/07/01 11:40:15;;;;;;;2.10;1.90;;;;;;;27.04;53.64;98393.58;125077;1093;64214;-80
2021/07/01 11:42:44;;;;;;;4.07;1.70;;;;;;;27.10;52.88;98398.17;125164;1093;64284;-79
2021/07/01 11:45:11;;;;;;;3.60;1.40;;;;;;;27.14;53.39;98394.74;125116;1093;64272;-80
2021/07/01 11:47:41;;;;;;;1.67;1.57;;;;;;;27.27;52.45;98393.81;125125;1093;64268;-79
2021/07/01 11:50:10;;;;;;;5.10;3.43;;;;;;;27.34;52.86;98401.98;125188;1093;64270;-80
2021/07/01 11:52:38;;;;;;;3.53;1.60;;;;;;;27.43;52.94;98395.13;125243;1093;64214;-80
2021/07/01 11:55:05;;;;;;;4.50;2.30;;;;;;;27.54;53.13;98399.02;125091;1093;64277;-80
2021/07/01 11:57:31;;;;;;;2.40;2.20;;;;;;;27.60;53.04;98400.88;125124;1093;64264;-80
2021/07/01 11:59:58;;;;;;;2.03;1.40;;;;;;;27.74;53.17;98399.64;125090;1092;64306;-80
2021/07/01 12:02:25;;;;;;;1.50;1.40;;;;;;;27.72;52.19;98392.72;125140;1093;64299;-80